createdAt,value
2018-06-24T00:00:53.926Z,73.35
2018-06-24T00:02:29.919Z,73.35
2018-06-24T00:04:05.921Z,73.21
2018-06-24T00:05:41.911Z,73.22
2018-06-24T00:07:17.899Z,73.25
2018-06-24T00:08:53.909Z,73.55
2018-06-24T00:10:29.869Z,73.55
2018-06-24T00:12:05.873Z,73.41
2018-06-24T00:13:47.628Z,73.50
2018-06-24T00:15:23.641Z,73.47
2018-06-24T00:16:59.690Z,73.54
2018-06-24T00:18:35.753Z,73.74
2018-06-24T00:20:11.831Z,73.62
2018-06-24T00:21:47.891Z,73.74
2018-06-24T00:23:23.859Z,73.61
2018-06-24T00:24:59.823Z,73.43
2018-06-24T00:26:35.823Z,73.57
2018-06-24T00:28:11.798Z,73.74
2018-06-24T00:29:47.803Z,73.49
2018-06-24T00:31:23.570Z,73.67
2018-06-24T00:32:59.978Z,73.63
2018-06-24T00:34:36.067Z,73.64
2018-06-24T00:36:12.910Z,73.82
2018-06-24T00:37:48.945Z,73.90
2018-06-24T00:39:24.964Z,73.89
2018-06-24T00:41:01.208Z,73.76
2018-06-24T00:42:37.246Z,73.71
2018-06-24T00:44:13.286Z,73.79
2018-06-24T00:45:49.145Z,73.86
2018-06-24T00:47:24.723Z,73.83
2018-06-24T00:49:00.547Z,73.95
2018-06-24T00:50:36.610Z,73.92
2018-06-24T00:52:12.598Z,73.89
2018-06-24T00:53:48.566Z,73.95
2018-06-24T00:55:24.574Z,73.97
2018-06-24T00:57:00.804Z,73.88
2018-06-24T00:58:36.882Z,73.74
2018-06-24T01:00:16.084Z,73.48
2018-06-24T01:01:53.497Z,73.48
2018-06-24T01:03:29.523Z,73.18
2018-06-24T01:05:05.486Z,73.37
2018-06-24T01:06:41.494Z,73.04
2018-06-24T01:08:17.433Z,72.88
2018-06-24T01:09:53.392Z,72.59
2018-06-24T01:11:29.140Z,72.35
2018-06-24T01:13:05.028Z,72.68
2018-06-24T01:14:41.006Z,72.66
2018-06-24T01:16:16.945Z,72.33
2018-06-24T01:17:52.898Z,72.33
2018-06-24T01:19:28.870Z,72.38
2018-06-24T01:21:04.828Z,72.60
2018-06-24T01:22:40.770Z,72.59
2018-06-24T01:24:16.541Z,72.15
2018-06-24T01:25:52.291Z,72.31
2018-06-24T01:27:28.272Z,72.15
2018-06-24T01:29:04.792Z,72.30
2018-06-24T01:30:41.161Z,72.03
2018-06-24T01:32:17.146Z,71.84
2018-06-24T01:33:53.325Z,71.79
2018-06-24T01:35:29.321Z,71.57
2018-06-24T01:37:05.896Z,71.93
2018-06-24T01:38:42.113Z,71.78
2018-06-24T01:40:18.194Z,71.63
2018-06-24T01:41:54.204Z,71.85
2018-06-24T01:43:30.278Z,71.61
2018-06-24T01:45:06.539Z,71.18
2018-06-24T01:46:42.546Z,71.15
2018-06-24T01:48:18.588Z,71.26
2018-06-24T01:49:54.581Z,70.91
2018-06-24T01:51:31.738Z,70.77
2018-06-24T01:53:07.731Z,70.66
2018-06-24T01:54:43.690Z,70.78
2018-06-24T01:56:19.663Z,70.78
2018-06-24T01:57:55.592Z,70.70
2018-06-24T01:59:31.569Z,70.55
2018-06-24T02:01:07.604Z,70.66
2018-06-24T02:02:43.614Z,70.50
2018-06-24T02:04:19.532Z,70.23
2018-06-24T02:05:55.548Z,70.42
2018-06-24T02:07:31.513Z,70.01
2018-06-24T02:09:11.149Z,70.37
2018-06-24T02:10:47.144Z,70.44
2018-06-24T02:12:23.178Z,70.60
2018-06-24T02:13:59.151Z,70.69
2018-06-24T02:15:35.226Z,70.56
2018-06-24T02:17:12.272Z,70.23
2018-06-24T02:18:48.552Z,70.13
2018-06-24T02:20:24.906Z,69.92
2018-06-24T02:22:01.353Z,70.44
2018-06-24T02:23:37.401Z,70.11
2018-06-24T02:25:13.845Z,70.48
2018-06-24T02:26:50.356Z,70.60
2018-06-24T02:28:26.356Z,71.08
2018-06-24T02:30:02.410Z,71.40
2018-06-24T02:31:38.430Z,71.65
2018-06-24T02:33:14.447Z,71.99
2018-06-24T02:34:50.433Z,72.03
2018-06-24T02:36:27.611Z,71.97
2018-06-24T02:38:03.634Z,71.93
2018-06-24T02:39:39.583Z,72.25
2018-06-24T02:41:15.573Z,72.23
2018-06-24T02:42:51.549Z,72.39
2018-06-24T02:44:27.543Z,72.40
2018-06-24T02:46:03.523Z,72.56
2018-06-24T02:47:39.522Z,72.64
2018-06-24T02:49:15.715Z,72.88
2018-06-24T02:50:52.551Z,73.00
2018-06-24T02:52:29.537Z,73.31
2018-06-24T02:54:05.801Z,73.39
2018-06-24T02:55:41.771Z,73.27
2018-06-24T02:57:17.752Z,73.25
2018-06-24T02:58:53.735Z,73.34
2018-06-24T03:00:29.689Z,73.11
2018-06-24T03:02:05.746Z,73.25
2018-06-24T03:03:41.710Z,73.17
2018-06-24T03:05:17.753Z,73.02
2018-06-24T03:06:53.746Z,73.33
2018-06-24T03:08:29.679Z,73.35
2018-06-24T03:10:05.668Z,73.20
2018-06-24T03:11:42.005Z,73.15
2018-06-24T03:13:17.988Z,73.04
2018-06-24T03:14:53.976Z,73.12
2018-06-24T03:16:29.958Z,73.29
2018-06-24T03:18:06.199Z,73.37
2018-06-24T03:19:42.191Z,73.37
2018-06-24T03:21:18.533Z,73.28
2018-06-24T03:22:54.589Z,73.28
2018-06-24T03:24:30.625Z,73.33
2018-06-24T03:26:06.723Z,73.20
2018-06-24T03:27:42.754Z,73.20
2018-06-24T03:29:18.755Z,73.07
2018-06-24T03:30:54.669Z,73.01
2018-06-24T03:32:30.633Z,72.96
2018-06-24T03:34:06.877Z,73.23
2018-06-24T03:35:42.600Z,73.04
2018-06-24T03:37:18.443Z,72.97
2018-06-24T03:38:54.388Z,72.94
2018-06-24T03:40:30.742Z,72.89
2018-06-24T03:42:06.721Z,72.96
2018-06-24T03:43:42.730Z,73.02
2018-06-24T03:45:18.517Z,72.75
2018-06-24T03:46:55.376Z,72.89
2018-06-24T03:48:31.319Z,72.91
2018-06-24T03:50:07.270Z,72.56
2018-06-24T03:51:43.257Z,72.52
2018-06-24T03:53:19.311Z,72.22
2018-06-24T03:54:55.296Z,71.92
2018-06-24T03:56:31.021Z,71.82
2018-06-24T03:58:06.871Z,71.62
2018-06-24T03:59:43.243Z,71.71
2018-06-24T04:01:19.078Z,71.33
2018-06-24T04:02:55.069Z,71.20
2018-06-24T04:04:31.666Z,71.07
2018-06-24T04:06:08.497Z,71.20
2018-06-24T04:07:44.522Z,71.10
2018-06-24T04:09:20.535Z,70.98
2018-06-24T04:10:56.487Z,71.16
2018-06-24T04:12:32.422Z,70.57
2018-06-24T04:14:08.375Z,70.44
2018-06-24T04:15:44.397Z,70.11
2018-06-24T04:17:20.353Z,69.76
2018-06-24T04:18:56.580Z,69.49
2018-06-24T04:20:32.550Z,69.43
2018-06-24T04:22:08.975Z,69.27
2018-06-24T04:23:48.970Z,69.35
2018-06-24T04:25:25.470Z,68.90
2018-06-24T04:27:01.541Z,68.96
2018-06-24T04:28:37.501Z,68.58
2018-06-24T04:30:13.492Z,68.03
2018-06-24T04:31:49.530Z,67.68
2018-06-24T04:33:26.008Z,67.76
2018-06-24T04:35:02.476Z,67.32
2018-06-24T04:36:38.482Z,66.71
2018-06-24T04:38:21.588Z,66.56
2018-06-24T04:39:57.642Z,65.91
2018-06-24T04:41:51.054Z,65.73
2018-06-24T04:43:30.837Z,65.15
2018-06-24T04:45:07.040Z,65.04
2018-06-24T04:46:43.542Z,64.62
2018-06-24T04:48:19.541Z,64.34
2018-06-24T04:49:55.603Z,64.45
2018-06-24T04:51:32.700Z,63.85
2018-06-24T04:53:08.690Z,63.77
2018-06-24T04:54:44.858Z,63.72
2018-06-24T04:56:20.804Z,63.58
2018-06-24T04:57:56.776Z,63.98
2018-06-24T04:59:33.079Z,63.47
2018-06-24T05:01:09.732Z,63.32
2018-06-24T05:02:45.827Z,63.25
2018-06-24T05:04:21.821Z,63.44
2018-06-24T05:05:57.846Z,63.65
2018-06-24T05:07:33.845Z,63.67
2018-06-24T05:09:10.892Z,63.69
2018-06-24T05:10:46.980Z,63.72
2018-06-24T05:12:22.989Z,63.68
2018-06-24T05:13:58.771Z,63.42
2018-06-24T05:15:34.751Z,63.12
2018-06-24T05:17:11.226Z,62.81
2018-06-24T05:18:47.509Z,62.54
2018-06-24T05:20:23.985Z,62.78
2018-06-24T05:21:59.984Z,61.95
2018-06-24T05:23:37.458Z,62.08
2018-06-24T05:25:13.832Z,61.74
2018-06-24T05:26:50.642Z,61.28
2018-06-24T05:28:27.141Z,61.27
2018-06-24T05:30:04.813Z,60.97
2018-06-24T05:31:43.138Z,61.30
2018-06-24T05:33:20.498Z,61.02
2018-06-24T05:34:57.932Z,61.00
2018-06-24T05:36:41.033Z,61.73
2018-06-24T05:38:18.430Z,61.37
2018-06-24T05:39:54.989Z,61.53
2018-06-24T05:41:31.137Z,61.45
2018-06-24T05:43:07.220Z,61.32
2018-06-24T05:44:43.129Z,61.36
2018-06-24T05:46:21.064Z,61.18
2018-06-24T05:47:57.087Z,60.55
2018-06-24T05:49:34.774Z,60.48
2018-06-24T05:51:10.826Z,61.38
2018-06-24T05:52:47.029Z,61.06
2018-06-24T05:54:23.025Z,61.13
2018-06-24T05:56:00.099Z,61.50
2018-06-24T05:57:36.153Z,61.12
2018-06-24T05:59:12.477Z,61.32
2018-06-24T06:00:48.487Z,61.15
2018-06-24T06:02:29.978Z,60.67
2018-06-24T06:04:07.455Z,60.52
2018-06-24T06:05:45.945Z,60.49
2018-06-24T06:07:23.692Z,60.47
2018-06-24T06:09:00.637Z,60.00
2018-06-24T06:10:38.696Z,59.77
2018-06-24T06:13:57.635Z,58.83
2018-06-24T06:15:34.325Z,58.63
2018-06-24T06:17:11.027Z,58.57
2018-06-24T06:18:52.268Z,58.63
2018-06-24T06:20:29.531Z,58.28
2018-06-24T06:22:07.042Z,57.98
2018-06-24T06:25:41.730Z,57.42
2018-06-24T06:27:18.549Z,56.75
2018-06-24T06:28:57.120Z,56.52
2018-06-24T06:30:34.689Z,56.01
2018-06-24T06:32:11.877Z,55.92
2018-06-24T06:33:49.299Z,55.30
2018-06-24T06:35:25.045Z,55.07
2018-06-24T06:37:18.749Z,54.86
2018-06-24T06:38:58.966Z,53.25
2018-06-24T06:40:35.924Z,52.70
2018-06-24T06:42:12.013Z,52.53
2018-06-24T06:43:48.194Z,52.80
2018-06-24T06:45:24.512Z,52.28
2018-06-24T06:47:00.471Z,51.91
2018-06-24T06:48:36.649Z,52.03
2018-06-24T06:50:13.269Z,50.96
2018-06-24T06:51:52.376Z,51.03
2018-06-24T06:53:36.675Z,50.69
2018-06-24T06:55:15.362Z,50.88
2018-06-24T06:56:53.234Z,50.74
2018-06-24T06:58:31.379Z,50.78
2018-06-24T07:00:08.385Z,50.91
2018-06-24T07:01:45.418Z,50.01
2018-06-24T07:03:22.091Z,49.77
2018-06-24T07:05:00.636Z,49.55
2018-06-24T07:06:38.212Z,49.10
2018-06-24T07:08:14.581Z,49.88
2018-06-24T07:09:50.368Z,49.23
2018-06-24T07:13:40.479Z,48.77
2018-06-24T07:15:20.170Z,48.54
2018-06-24T07:17:07.924Z,48.73
2018-06-24T07:28:18.430Z,48.68
2018-06-24T07:34:53.394Z,48.86
2018-06-24T07:36:29.312Z,49.21
2018-06-24T07:38:05.580Z,49.27
2018-06-24T07:39:41.337Z,48.63
2018-06-24T07:41:33.390Z,48.57
2018-06-24T07:43:17.044Z,47.99
2018-06-24T07:44:53.085Z,47.66
2018-06-24T07:46:30.249Z,46.74
2018-06-24T07:48:07.176Z,45.29
2018-06-24T07:49:43.385Z,45.17
2018-06-24T07:51:19.361Z,44.84
2018-06-24T07:52:55.130Z,44.46
2018-06-24T07:54:32.780Z,44.34
2018-06-24T07:56:09.603Z,43.14
2018-06-24T07:57:45.720Z,42.22
2018-06-24T07:59:21.704Z,41.91
2018-06-24T08:00:57.718Z,42.25
2018-06-24T08:02:35.086Z,41.47
2018-06-24T08:04:19.831Z,41.85
2018-06-24T08:05:59.181Z,41.67
2018-06-24T08:07:36.302Z,42.06
2018-06-24T08:09:15.738Z,43.23
2018-06-24T08:10:52.037Z,43.83
2018-06-24T08:12:28.224Z,43.30
2018-06-24T08:14:08.063Z,42.67
2018-06-24T08:15:46.048Z,41.69
2018-06-24T08:17:27.122Z,42.03
2018-06-24T08:19:08.917Z,42.02
2018-06-24T08:20:48.479Z,42.93
2018-06-24T08:22:25.764Z,43.33
2018-06-24T08:24:01.859Z,43.67
2018-06-24T08:25:37.879Z,44.60
2018-06-24T08:27:13.949Z,43.93
2018-06-24T08:28:49.975Z,43.84
2018-06-24T08:30:25.991Z,43.75
2018-06-24T08:32:01.980Z,43.57
2018-06-24T08:33:38.062Z,43.98
2018-06-24T08:35:18.455Z,42.97
2018-06-24T08:37:04.027Z,42.51
2018-06-24T08:38:40.609Z,43.21
2018-06-24T08:40:18.722Z,43.30
2018-06-24T08:42:17.085Z,43.48
2018-06-24T08:43:58.113Z,43.33
2018-06-24T08:45:37.069Z,42.10
2018-06-24T08:47:17.101Z,42.19
2018-06-24T08:48:57.606Z,41.73
2018-06-24T08:50:35.964Z,41.37
2018-06-24T08:52:13.429Z,40.67
2018-06-24T08:53:51.163Z,41.43
2018-06-24T08:55:27.369Z,41.44
2018-06-24T08:57:06.440Z,41.53
2018-06-24T08:58:45.134Z,41.12
2018-06-24T09:00:24.372Z,41.01
2018-06-24T09:02:03.132Z,40.90
2018-06-24T09:03:42.843Z,40.57
2018-06-24T09:05:24.314Z,41.65
2018-06-24T09:07:03.271Z,41.78
2018-06-24T09:08:40.220Z,41.91
2018-06-24T09:10:20.246Z,42.21
2018-06-24T09:12:07.222Z,43.03
2018-06-24T09:15:29.366Z,43.57
2018-06-24T09:17:07.127Z,43.13
2018-06-24T09:18:46.072Z,42.60
2018-06-24T09:20:22.570Z,41.50
2018-06-24T09:21:58.818Z,40.67
2018-06-24T09:23:38.586Z,41.50
2018-06-24T09:25:16.305Z,40.90
2018-06-24T09:26:59.122Z,41.29
2018-06-24T09:28:36.234Z,41.18
2018-06-24T09:30:12.250Z,41.20
2018-06-24T09:31:48.249Z,41.75
2018-06-24T09:33:24.590Z,41.25
2018-06-24T09:35:02.678Z,41.08
2018-06-24T09:36:39.741Z,40.62
2018-06-24T09:38:15.714Z,40.06
2018-06-24T09:39:51.676Z,39.30
2018-06-24T09:41:27.619Z,39.21
2018-06-24T09:43:03.652Z,39.41
2018-06-24T09:44:39.633Z,39.22
2018-06-24T09:46:15.357Z,38.26
2018-06-24T09:47:51.125Z,38.01
2018-06-24T09:49:27.309Z,39.07
2018-06-24T09:51:03.332Z,39.03
2018-06-24T09:52:39.250Z,39.69
2018-06-24T09:54:15.232Z,39.94
2018-06-24T09:55:51.235Z,39.96
2018-06-24T09:57:27.491Z,40.49
2018-06-24T09:59:03.428Z,39.86
2018-06-24T10:00:39.380Z,39.42
2018-06-24T10:02:15.357Z,38.42
2018-06-24T10:03:51.340Z,38.49
2018-06-24T10:05:27.261Z,39.26
2018-06-24T10:07:03.259Z,39.55
2018-06-24T10:08:39.224Z,39.84
2018-06-24T10:10:15.173Z,40.85
2018-06-24T10:11:51.137Z,40.69
2018-06-24T10:13:27.053Z,40.97
2018-06-24T10:15:03.033Z,42.00
2018-06-24T10:16:39.284Z,42.26
2018-06-24T10:18:15.228Z,41.19
2018-06-24T10:19:51.201Z,40.91
2018-06-24T10:21:27.325Z,41.10
2018-06-24T10:23:03.304Z,40.95
2018-06-24T10:24:39.273Z,39.97
2018-06-24T10:26:15.409Z,39.14
2018-06-24T10:27:51.474Z,39.32
2018-06-24T10:29:27.495Z,39.16
2018-06-24T10:31:03.439Z,39.83
2018-06-24T10:32:39.375Z,38.79
2018-06-24T10:34:15.443Z,39.07
2018-06-24T10:35:51.665Z,39.57
2018-06-24T10:37:27.652Z,39.25
2018-06-24T10:39:04.676Z,39.59
2018-06-24T10:40:41.507Z,38.88
2018-06-24T10:42:18.864Z,37.91
2018-06-24T10:43:56.526Z,38.23
2018-06-24T10:45:34.523Z,38.20
2018-06-24T10:47:10.489Z,38.44
2018-06-24T10:48:47.807Z,38.44
2018-06-24T10:50:23.917Z,38.30
2018-06-24T10:52:00.510Z,37.76
2018-06-24T10:53:37.786Z,36.41
2018-06-24T10:55:14.941Z,36.26
2018-06-24T10:56:51.961Z,35.31
2018-06-24T10:58:28.488Z,34.73
2018-06-24T11:00:05.061Z,35.54
2018-06-24T11:01:41.445Z,36.28
2018-06-24T11:03:18.321Z,36.57
2018-06-24T11:04:54.541Z,36.79
2018-06-24T11:06:30.548Z,37.42
2018-06-24T11:08:07.195Z,37.77
2018-06-24T11:09:43.262Z,38.10
2018-06-24T11:11:19.830Z,38.54
2018-06-24T11:12:56.069Z,38.79
2018-06-24T11:14:33.372Z,38.11
2018-06-24T11:16:09.835Z,37.71
2018-06-24T11:17:46.022Z,37.85
2018-06-24T11:19:22.654Z,39.04
2018-06-24T11:20:58.831Z,39.22
2018-06-24T11:22:34.892Z,40.01
2018-06-24T11:24:12.063Z,39.81
2018-06-24T11:25:48.773Z,40.25
2018-06-24T11:27:24.900Z,39.89
2018-06-24T11:29:03.715Z,39.23
2018-06-24T11:30:39.852Z,39.15
2018-06-24T11:32:15.902Z,39.87
2018-06-24T11:33:52.741Z,39.81
2018-06-24T11:35:29.284Z,39.21
2018-06-24T11:37:05.710Z,38.55
2018-06-24T11:38:42.389Z,38.60
2018-06-24T11:40:18.857Z,38.35
2018-06-24T11:41:55.823Z,37.28
2018-06-24T11:43:31.875Z,37.75
2018-06-24T11:45:08.402Z,38.37
2018-06-24T11:46:49.028Z,37.17
2018-06-24T11:48:25.647Z,36.49
2018-06-24T11:50:11.371Z,36.40
2018-06-24T11:51:48.049Z,36.02
2018-06-24T11:53:24.345Z,36.02
2018-06-24T11:55:02.559Z,35.19
2018-06-24T11:56:39.858Z,34.52
2018-06-24T11:58:16.090Z,34.61
2018-06-24T11:59:53.560Z,34.84
2018-06-24T12:01:30.051Z,34.84
2018-06-24T12:03:07.012Z,34.93
2018-06-24T12:04:44.143Z,35.32
2018-06-24T12:06:22.600Z,35.11
2018-06-24T12:08:01.707Z,35.45
2018-06-24T12:09:38.841Z,35.07
2018-06-24T12:11:14.853Z,35.71
2018-06-24T12:12:52.775Z,35.69
2018-06-24T12:14:28.782Z,34.98
2018-06-24T12:16:05.224Z,35.60
2018-06-24T12:17:43.008Z,35.29
2018-06-24T12:19:25.609Z,35.89
2018-06-24T12:21:02.522Z,35.87
2018-06-24T12:22:38.569Z,35.56
2018-06-24T12:24:15.250Z,35.71
2018-06-24T12:25:52.657Z,35.77
2018-06-24T12:27:33.135Z,35.34
2018-06-24T12:29:11.944Z,34.69
2018-06-24T12:30:49.787Z,35.30
2018-06-24T12:32:29.105Z,34.58
2018-06-24T12:34:05.430Z,35.15
2018-06-24T12:35:41.621Z,35.80
2018-06-24T12:37:17.625Z,35.58
2018-06-24T12:38:54.288Z,34.91
2018-06-24T12:40:34.320Z,35.07
2018-06-24T12:42:12.049Z,34.82
2018-06-24T12:43:48.246Z,34.66
2018-06-24T12:45:24.652Z,34.52
2018-06-24T12:47:00.675Z,34.73
2018-06-24T12:48:36.853Z,34.41
2018-06-24T12:50:13.444Z,34.64
2018-06-24T12:51:49.717Z,34.94
2018-06-24T12:53:25.676Z,35.40
2018-06-24T12:55:02.023Z,35.34
2018-06-24T12:56:38.892Z,35.32
2018-06-24T12:58:14.989Z,35.41
2018-06-24T12:59:51.412Z,34.84
2018-06-24T13:01:29.992Z,34.55
2018-06-24T13:03:06.472Z,34.03
2018-06-24T13:04:42.768Z,33.83
2018-06-24T13:06:18.731Z,32.91
2018-06-24T13:07:54.699Z,32.43
2018-06-24T13:09:33.065Z,33.18
2018-06-24T13:11:13.046Z,33.24
2018-06-24T13:12:50.632Z,34.68
2018-06-24T13:14:33.166Z,34.81
2018-06-24T13:16:15.370Z,34.66
2018-06-24T13:17:58.829Z,34.55
2018-06-24T13:19:48.538Z,34.11
2018-06-24T13:21:53.284Z,33.19
2018-06-24T13:23:51.922Z,31.68
2018-06-24T13:25:55.001Z,32.88
2018-06-24T13:27:35.140Z,32.76
2018-06-24T13:29:11.193Z,33.36
2018-06-24T13:30:48.332Z,31.77
2018-06-24T13:32:26.426Z,32.29
2018-06-24T13:34:03.582Z,31.94
2018-06-24T13:35:40.626Z,31.46
2018-06-24T13:37:20.307Z,31.04
2018-06-24T13:38:57.996Z,31.08
2018-06-24T13:40:35.642Z,30.69
2018-06-24T13:42:18.458Z,31.39
2018-06-24T13:43:55.401Z,31.92
2018-06-24T13:45:31.477Z,32.89
2018-06-24T13:47:13.526Z,32.74
2018-06-24T13:48:50.112Z,33.30
2018-06-24T13:50:26.417Z,33.52
2018-06-24T13:52:02.917Z,33.69
2018-06-24T13:53:39.924Z,33.69
2018-06-24T13:55:16.380Z,33.19
2018-06-24T13:56:52.545Z,33.50
2018-06-24T13:58:29.728Z,33.28
2018-06-24T14:00:06.468Z,33.12
2018-06-24T14:01:42.481Z,33.17
2018-06-24T14:03:18.498Z,32.54
2018-06-24T14:05:02.322Z,32.72
2018-06-24T14:06:38.728Z,33.69
2018-06-24T14:08:17.829Z,33.43
2018-06-24T14:09:53.854Z,33.29
2018-06-24T14:11:29.869Z,33.36
2018-06-24T14:13:06.689Z,33.56
2018-06-24T14:14:43.970Z,34.13
2018-06-24T14:16:19.969Z,33.80
2018-06-24T14:17:56.018Z,33.99
2018-06-24T14:19:32.199Z,33.76
2018-06-24T14:21:08.159Z,34.27
2018-06-24T14:22:44.567Z,33.85
2018-06-24T14:24:20.606Z,33.57
2018-06-24T14:25:57.897Z,33.85
2018-06-24T14:27:33.912Z,33.56
2018-06-24T14:29:09.916Z,33.90
2018-06-24T14:30:47.067Z,34.43
2018-06-24T14:32:23.382Z,34.09
2018-06-24T14:34:01.771Z,34.22
2018-06-24T14:35:39.881Z,34.23
2018-06-24T14:37:16.309Z,34.44
2018-06-24T14:38:52.360Z,34.37
2018-06-24T14:40:32.583Z,33.87
2018-06-24T14:42:09.410Z,33.60
2018-06-24T14:43:45.360Z,34.27
2018-06-24T14:45:21.317Z,33.93
2018-06-24T14:46:57.359Z,34.84
2018-06-24T14:48:33.959Z,35.68
2018-06-24T14:50:11.020Z,36.00
2018-06-24T14:51:49.272Z,35.82
2018-06-24T14:53:25.280Z,36.35
2018-06-24T14:55:01.269Z,36.64
2018-06-24T14:56:37.217Z,37.24
2018-06-24T14:58:13.981Z,37.00
2018-06-24T14:59:50.684Z,37.13
2018-06-24T15:01:27.190Z,36.97
2018-06-24T15:03:03.080Z,37.42
2018-06-24T15:04:39.137Z,37.34
2018-06-24T15:06:16.253Z,37.43
2018-06-24T15:07:52.787Z,38.17
2018-06-24T15:09:28.736Z,38.30
2018-06-24T15:11:04.769Z,38.61
2018-06-24T15:12:41.872Z,37.90
2018-06-24T15:14:17.836Z,37.75
2018-06-24T15:15:53.851Z,38.33
2018-06-24T15:17:30.021Z,38.90
2018-06-24T15:19:06.645Z,38.71
2018-06-24T15:20:42.688Z,38.26
2018-06-24T15:22:18.668Z,38.82
2018-06-24T15:23:54.659Z,38.78
2018-06-24T15:25:30.708Z,38.81
2018-06-24T15:27:06.656Z,39.16
2018-06-24T15:28:43.572Z,39.35
2018-06-24T15:30:19.622Z,39.23
2018-06-24T15:31:55.740Z,39.66
2018-06-24T15:33:31.735Z,39.68
2018-06-24T15:35:07.805Z,39.52
2018-06-24T15:36:43.945Z,39.60
2018-06-24T15:38:19.960Z,40.08
2018-06-24T15:39:56.043Z,40.11
2018-06-24T15:41:32.043Z,39.53
2018-06-24T15:43:08.549Z,39.74
2018-06-24T15:44:44.745Z,39.54
2018-06-24T15:46:20.711Z,39.90
2018-06-24T15:48:01.395Z,39.61
2018-06-24T15:49:37.432Z,40.30
2018-06-24T15:51:15.937Z,40.06
2018-06-24T15:52:52.141Z,40.31
2018-06-24T15:54:29.356Z,40.23
2018-06-24T15:56:05.356Z,40.56
2018-06-24T15:57:41.329Z,40.63
2018-06-24T15:59:17.716Z,42.92
2018-06-24T16:00:54.221Z,44.98
2018-06-24T16:02:31.237Z,45.53
2018-06-24T16:04:07.198Z,46.65
2018-06-24T16:05:43.630Z,47.25
2018-06-24T16:07:19.648Z,48.45
2018-06-24T16:08:55.654Z,48.38
2018-06-24T16:10:32.033Z,49.59
2018-06-24T16:12:10.819Z,50.47
2018-06-24T16:13:47.346Z,50.57
2018-06-24T16:15:23.387Z,51.43
2018-06-24T16:17:02.155Z,51.78
2018-06-24T16:18:40.957Z,52.07
2018-06-24T16:20:19.013Z,50.93
2018-06-24T16:21:56.092Z,51.97
2018-06-24T16:23:36.332Z,50.89
2018-06-24T16:25:13.782Z,53.44
2018-06-24T16:26:50.570Z,54.54
2018-06-24T16:28:28.006Z,54.92
2018-06-24T16:30:04.826Z,53.90
2018-06-24T16:31:41.583Z,54.03
2018-06-24T16:33:17.625Z,54.93
2018-06-24T16:34:53.562Z,53.51
2018-06-24T16:36:29.493Z,52.75
2018-06-24T16:38:05.677Z,52.45
2018-06-24T16:39:41.645Z,51.84
2018-06-24T16:41:19.433Z,52.11
2018-06-24T16:42:55.388Z,51.67
2018-06-24T16:44:32.514Z,51.73
2018-06-24T16:46:08.484Z,51.19
2018-06-24T16:47:44.639Z,50.66
2018-06-24T16:49:20.556Z,50.18
2018-06-24T16:50:56.897Z,50.46
2018-06-24T16:52:32.944Z,50.56
2018-06-24T16:54:08.700Z,51.42
2018-06-24T16:55:44.481Z,51.21
2018-06-24T16:57:23.552Z,51.47
2018-06-24T16:58:59.906Z,51.92
2018-06-24T17:00:35.869Z,51.89
2018-06-24T17:02:11.876Z,51.60
2018-06-24T17:03:48.513Z,50.67
2018-06-24T17:05:26.402Z,50.87
2018-06-24T17:07:02.525Z,50.27
2018-06-24T17:08:49.022Z,50.49
2018-06-24T17:10:30.315Z,50.60
2018-06-24T17:12:07.289Z,50.48
2018-06-24T17:13:43.298Z,50.59
2018-06-24T17:15:20.117Z,50.17
2018-06-24T17:16:56.097Z,49.88
2018-06-24T17:18:32.143Z,49.84
2018-06-24T17:20:08.228Z,49.94
2018-06-24T17:21:44.285Z,50.08
2018-06-24T17:23:20.262Z,50.79
2018-06-24T17:24:56.357Z,50.78
2018-06-24T17:26:32.391Z,50.85
2018-06-24T17:28:08.440Z,51.19
2018-06-24T17:29:59.517Z,51.24
2018-06-24T17:31:36.417Z,52.10
2018-06-24T17:33:16.134Z,52.65
2018-06-24T17:34:55.272Z,52.80
2018-06-24T17:36:35.848Z,53.22
2018-06-24T17:38:13.917Z,53.23
2018-06-24T17:39:54.422Z,55.20
2018-06-24T17:41:30.477Z,57.19
2018-06-24T17:43:06.738Z,57.32
2018-06-24T17:44:51.437Z,58.30
2018-06-24T17:46:27.473Z,58.47
2018-06-24T17:48:07.844Z,58.11
2018-06-24T17:49:51.178Z,57.36
2018-06-24T17:51:28.965Z,57.46
2018-06-24T17:53:06.304Z,56.90
2018-06-24T17:55:10.055Z,57.33
2018-06-24T17:56:50.570Z,57.46
2018-06-24T17:58:47.093Z,57.80
2018-06-24T18:00:26.366Z,58.70
2018-06-24T18:02:09.964Z,59.11
2018-06-24T18:03:56.172Z,59.13
2018-06-24T18:05:37.082Z,59.55
2018-06-24T18:07:13.845Z,59.74
2018-06-24T18:10:45.202Z,60.00
2018-06-24T18:12:21.667Z,60.36
2018-06-24T18:14:14.177Z,60.48
2018-06-24T18:16:25.121Z,60.98
2018-06-24T18:18:09.254Z,61.11
2018-06-24T18:19:47.003Z,61.05
2018-06-24T18:21:23.903Z,61.52
2018-06-24T18:23:03.082Z,61.76
2018-06-24T18:24:49.775Z,61.83
2018-06-24T18:26:28.285Z,62.09
2018-06-24T18:28:04.474Z,62.28
2018-06-24T18:29:40.515Z,62.36
2018-06-24T18:31:17.081Z,62.28
2018-06-24T18:32:53.132Z,62.32
2018-06-24T18:34:29.273Z,62.25
2018-06-24T18:36:10.500Z,62.32
2018-06-24T18:37:46.320Z,62.23
2018-06-24T18:39:37.233Z,62.46
2018-06-24T18:41:13.540Z,62.18
2018-06-24T18:42:54.061Z,62.13
2018-06-24T18:44:31.163Z,62.28
2018-06-24T18:46:07.310Z,62.09
2018-06-24T18:48:03.523Z,62.22
2018-06-24T18:49:39.330Z,62.54
2018-06-24T18:51:15.186Z,62.64
2018-06-24T18:53:01.100Z,62.37
2018-06-24T18:54:43.236Z,62.84
2018-06-24T18:56:20.486Z,62.78
2018-06-24T18:57:57.615Z,62.62
2018-06-24T18:59:34.052Z,63.07
2018-06-24T19:01:11.831Z,63.23
2018-06-24T19:02:48.082Z,63.38
2018-06-24T19:04:24.040Z,63.43
2018-06-24T19:06:00.083Z,63.54
2018-06-24T19:07:36.150Z,64.06
2018-06-24T19:09:14.102Z,64.04
2018-06-24T19:10:50.781Z,64.15
2018-06-24T19:12:27.239Z,63.98
2018-06-24T19:14:12.183Z,63.89
2018-06-24T19:15:49.542Z,63.91
2018-06-24T19:17:25.474Z,63.96
2018-06-24T19:19:01.850Z,64.32
2018-06-24T19:20:41.481Z,64.56
2018-06-24T19:22:19.585Z,64.58
2018-06-24T19:23:56.763Z,64.47
2018-06-24T19:25:35.818Z,64.42
2018-06-24T19:27:26.277Z,64.77
2018-06-24T19:29:06.567Z,65.11
2018-06-24T19:30:51.968Z,65.00
2018-06-24T19:32:37.575Z,65.21
2018-06-24T19:34:15.163Z,65.12
2018-06-24T19:35:51.857Z,65.54
2018-06-24T19:37:28.800Z,65.81
2018-06-24T19:39:09.606Z,65.79
2018-06-24T19:40:45.567Z,65.51
2018-06-24T19:42:21.963Z,65.26
2018-06-24T19:44:00.906Z,65.29
2018-06-24T19:45:37.875Z,65.55
2018-06-24T19:47:17.249Z,65.73
2018-06-24T19:48:53.397Z,65.56
2018-06-24T19:50:29.450Z,65.67
2018-06-24T19:52:05.258Z,65.86
2018-06-24T19:53:41.613Z,65.93
2018-06-24T19:55:17.911Z,65.81
2018-06-24T19:56:54.829Z,66.14
2018-06-24T19:58:30.862Z,66.12
2018-06-24T20:00:06.908Z,66.16
2018-06-24T20:01:42.955Z,66.12
2018-06-24T20:03:20.305Z,65.70
2018-06-24T20:05:00.041Z,65.73
2018-06-24T20:06:37.754Z,65.62
2018-06-24T20:08:14.357Z,65.93
2018-06-24T20:09:50.830Z,65.96
2018-06-24T20:11:36.139Z,66.07
2018-06-24T20:13:12.956Z,66.15
2018-06-24T20:14:48.945Z,66.43
2018-06-24T20:16:24.782Z,66.85
2018-06-24T20:18:00.784Z,66.72
2018-06-24T20:19:37.188Z,66.88
2018-06-24T20:21:13.163Z,66.81
2018-06-24T20:22:49.346Z,66.68
2018-06-24T20:24:25.451Z,66.84
2018-06-24T20:26:01.980Z,66.18
2018-06-24T20:27:38.220Z,66.61
2018-06-24T20:29:13.940Z,66.66
2018-06-24T20:30:49.936Z,66.42
2018-06-24T20:32:25.990Z,66.42
2018-06-24T20:34:02.813Z,66.48
2018-06-24T20:35:38.858Z,66.06
2018-06-24T20:37:14.822Z,66.37
2018-06-24T20:38:50.840Z,66.15
2018-06-24T20:40:26.859Z,66.24
2018-06-24T20:42:03.197Z,66.30
2018-06-24T20:43:38.960Z,66.14
2018-06-24T20:45:15.353Z,66.39
2018-06-24T20:46:51.394Z,66.39
2018-06-24T20:48:27.530Z,66.35
2018-06-24T20:50:04.886Z,66.18
2018-06-24T20:51:41.097Z,66.50
2018-06-24T20:53:17.362Z,66.35
2018-06-24T20:54:53.578Z,66.36
2018-06-24T20:56:29.813Z,66.22
2018-06-24T20:58:05.749Z,66.36
2018-06-24T20:59:41.741Z,66.08
2018-06-24T21:01:18.623Z,66.16
2018-06-24T21:02:54.788Z,66.16
2018-06-24T21:04:30.858Z,65.27
2018-06-24T21:06:07.890Z,65.78
2018-06-24T21:07:45.538Z,65.32
2018-06-24T21:09:22.382Z,65.48
2018-06-24T21:10:58.418Z,65.43
2018-06-24T21:12:34.451Z,65.52
2018-06-24T21:14:10.456Z,65.70
2018-06-24T21:15:46.630Z,65.59
2018-06-24T21:17:27.369Z,65.94
2018-06-24T21:19:03.601Z,66.09